Terminal Aerodrome Forecast
Issued by NWS Shreveport, LA

Home | Current Version | Previous Version | Text Only | Print | Product List | Glossary On
Versions: 1 2 3 4 5 6 7 8 9 10 11 12 13
000
FTUS44 KSHV 202300 RRA
TAFELD
TAF
KELD 202348Z 2100/2124 00000KT P6SM FEW045 SCT250
     FM210800 00000KT P6SM BKN045
     FM211000 00000KT P6SM OVC035
     FM211400 05004KT P6SM BKN040=

USA.gov is the U.S. government's official web portal to all federal, state and local government web resources and services.